createdAt,value
2019-04-25T00:03:12.619Z,45.48
2019-04-25T00:08:18.675Z,44.94
2019-04-25T00:13:24.172Z,45.63
2019-04-25T00:18:29.395Z,45.75
2019-04-25T00:23:35.551Z,45.85
2019-04-25T00:28:43.514Z,45.90
2019-04-25T00:33:47.957Z,46.25
2019-04-25T00:38:53.349Z,45.65
2019-04-25T00:43:58.624Z,46.05
2019-04-25T00:49:04.413Z,46.08
2019-04-25T00:54:09.676Z,46.27
2019-04-25T00:59:22.341Z,46.60
2019-04-25T01:04:29.438Z,46.40
2019-04-25T01:09:35.070Z,46.84
2019-04-25T01:14:42.006Z,47.48
2019-04-25T01:19:47.350Z,47.24
2019-04-25T01:24:54.136Z,46.84
2019-04-25T01:30:00.471Z,46.57
2019-04-25T01:35:23.692Z,46.84
2019-04-25T01:40:57.650Z,46.93
2019-04-25T01:46:04.223Z,47.01
2019-04-25T01:51:09.919Z,48.49
2019-04-25T01:56:15.180Z,49.08
2019-04-25T02:01:21.003Z,48.83
2019-04-25T02:06:26.385Z,48.94
2019-04-25T02:11:54.723Z,48.81
2019-04-25T02:17:00.945Z,49.20
2019-04-25T02:22:06.198Z,49.61
2019-04-25T02:27:13.609Z,50.81
2019-04-25T02:32:18.898Z,49.53
2019-04-25T02:37:25.654Z,49.98
2019-04-25T02:42:31.131Z,48.75
2019-04-25T02:48:01.432Z,48.79
2019-04-25T02:53:14.108Z,49.27
2019-04-25T02:58:19.564Z,48.99
2019-04-25T03:03:24.795Z,48.62
2019-04-25T03:08:30.080Z,49.37
2019-04-25T03:13:35.308Z,48.88
2019-04-25T03:19:04.741Z,49.09
2019-04-25T03:24:12.962Z,49.16
2019-04-25T03:29:16.435Z,48.56
2019-04-25T03:34:25.094Z,48.52
2019-04-25T03:39:28.960Z,48.21
2019-04-25T03:44:35.024Z,47.69
2019-04-25T03:49:40.376Z,47.81
2019-04-25T03:54:45.549Z,47.90
2019-04-25T03:59:53.499Z,47.97
2019-04-25T04:05:00.083Z,48.43
2019-04-25T04:10:06.613Z,48.19
2019-04-25T04:15:14.384Z,47.96
2019-04-25T04:20:41.575Z,48.09
2019-04-25T04:25:46.901Z,48.14
2019-04-25T04:30:53.970Z,48.02
2019-04-25T04:35:59.471Z,48.00
2019-04-25T04:41:04.807Z,48.08
2019-04-25T04:46:10.241Z,48.15
2019-04-25T04:51:16.048Z,48.16
2019-04-25T04:56:23.955Z,48.34
2019-04-25T05:01:31.073Z,48.19
2019-04-25T05:06:53.802Z,48.32
2019-04-25T05:11:59.203Z,48.47
2019-04-25T05:17:04.433Z,48.32
2019-04-25T05:22:09.733Z,48.19
2019-04-25T05:27:31.250Z,48.09
2019-04-25T05:32:24.127Z,48.54
2019-04-25T05:37:29.199Z,48.48
2019-04-25T05:42:58.602Z,47.83
2019-04-25T05:48:05.972Z,48.09
2019-04-25T05:53:11.618Z,48.79
2019-04-25T05:58:16.993Z,48.07
2019-04-25T06:03:24.805Z,48.31
2019-04-25T06:08:31.371Z,47.85
2019-04-25T06:13:53.138Z,47.84
2019-04-25T06:19:16.305Z,47.46
2019-04-25T06:24:44.417Z,47.45
2019-04-25T06:29:59.187Z,47.15
2019-04-25T06:35:00.574Z,46.84
2019-04-25T06:40:07.616Z,46.78
2019-04-25T06:45:34.303Z,45.61
2019-04-25T06:50:41.218Z,45.49
2019-04-25T06:55:46.453Z,45.04
2019-04-25T07:01:00.041Z,44.93
2019-04-25T07:05:59.242Z,44.40
2019-04-25T07:11:04.617Z,44.55
2019-04-25T07:16:09.947Z,43.71
2019-04-25T07:21:15.302Z,43.17
2019-04-25T07:26:39.809Z,43.18
2019-04-25T07:31:53.844Z,43.18
2019-04-25T07:36:59.196Z,43.03
2019-04-25T07:42:04.445Z,42.38
2019-04-25T07:47:09.706Z,42.20
2019-04-25T07:52:15.241Z,41.77
2019-04-25T07:57:20.498Z,40.53
2019-04-25T08:02:25.986Z,41.00
2019-04-25T08:07:31.611Z,40.76
2019-04-25T08:12:37.608Z,39.02
2019-04-25T08:18:04.225Z,37.06
2019-04-25T08:23:09.461Z,37.88
2019-04-25T08:28:14.711Z,37.14
2019-04-25T08:33:19.967Z,37.21
2019-04-25T08:38:25.528Z,36.90
2019-04-25T08:43:30.979Z,35.40
2019-04-25T08:48:55.509Z,35.89
2019-04-25T08:54:07.615Z,34.68
2019-04-25T08:59:41.895Z,33.52
2019-04-25T09:04:59.918Z,33.83
2019-04-25T09:10:06.236Z,34.07
2019-04-25T09:15:11.946Z,33.47
2019-04-25T09:20:17.397Z,33.70
2019-04-25T09:25:23.828Z,33.04
2019-04-25T09:30:30.117Z,32.18
2019-04-25T09:35:36.260Z,32.80
2019-04-25T09:40:41.900Z,31.72
2019-04-25T09:46:06.318Z,32.01
2019-04-25T09:51:16.243Z,31.52
2019-04-25T09:56:29.076Z,31.30
2019-04-25T10:01:36.387Z,31.77
2019-04-25T10:06:43.479Z,30.23
2019-04-25T10:11:49.134Z,29.45
2019-04-25T10:16:55.407Z,29.92
2019-04-25T10:22:00.751Z,30.45
2019-04-25T10:27:06.129Z,29.77
2019-04-25T10:32:13.003Z,28.95
2019-04-25T10:37:18.716Z,29.93
2019-04-25T10:42:24.390Z,29.34
2019-04-25T10:47:30.218Z,29.32
2019-04-25T10:52:35.555Z,28.76
2019-04-25T10:57:40.811Z,28.43
2019-04-25T11:02:46.596Z,28.79
2019-04-25T11:07:55.704Z,29.02
2019-04-25T11:12:59.692Z,28.15
2019-04-25T11:18:06.762Z,27.55
2019-04-25T11:23:14.008Z,26.87
2019-04-25T11:28:19.339Z,26.80
2019-04-25T11:33:24.974Z,26.97
2019-04-25T11:38:47.370Z,26.20
2019-04-25T11:43:55.252Z,26.02
2019-04-25T11:49:00.754Z,26.89
2019-04-25T11:54:06.082Z,26.84
2019-04-25T11:59:11.745Z,26.34
2019-04-25T12:04:17.018Z,26.42
2019-04-25T12:09:23.954Z,25.73
2019-04-25T12:14:29.348Z,25.84
2019-04-25T12:19:37.884Z,25.45
2019-04-25T12:24:41.540Z,25.36
2019-04-25T12:29:46.805Z,25.01
2019-04-25T12:34:52.063Z,24.83
2019-04-25T12:39:57.404Z,24.85
2019-04-25T12:45:15.433Z,24.55
2019-04-25T12:50:20.668Z,25.32
2019-04-25T12:55:26.207Z,24.47
2019-04-25T13:00:31.660Z,24.01
2019-04-25T13:05:36.897Z,23.75
2019-04-25T13:10:44.305Z,23.45
2019-04-25T13:15:49.486Z,24.20
2019-04-25T13:20:56.074Z,23.50
2019-04-25T13:26:04.391Z,22.65
2019-04-25T13:31:33.184Z,23.67
2019-04-25T13:36:38.746Z,22.15
2019-04-25T13:41:44.801Z,23.18
2019-04-25T13:46:50.119Z,21.66
2019-04-25T13:51:55.357Z,22.32
2019-04-25T13:57:00.617Z,23.23
2019-04-25T14:02:07.116Z,22.54
2019-04-25T14:07:12.747Z,22.24
2019-04-25T14:12:17.992Z,22.36
2019-04-25T14:17:33.814Z,21.48
2019-04-25T14:22:39.365Z,21.48
2019-04-25T14:27:44.702Z,21.71
2019-04-25T14:32:50.229Z,21.69
2019-04-25T14:37:55.810Z,20.75
2019-04-25T14:43:01.061Z,21.19
2019-04-25T14:48:06.416Z,21.95
2019-04-25T14:53:11.969Z,21.90
2019-04-25T14:58:18.277Z,21.72
2019-04-25T15:03:24.085Z,21.83
2019-04-25T15:08:29.449Z,21.36
2019-04-25T15:13:35.267Z,21.21
2019-04-25T15:18:46.603Z,20.72
2019-04-25T15:23:59.335Z,22.02
2019-04-25T15:28:54.569Z,22.60
2019-04-25T15:34:02.390Z,22.19
2019-04-25T15:39:26.765Z,23.70
2019-04-25T15:45:00.278Z,23.92
2019-04-25T15:50:07.683Z,23.92
2019-04-25T15:55:13.049Z,24.29
2019-04-25T16:00:23.217Z,24.61
2019-04-25T16:05:29.962Z,24.13
2019-04-25T16:10:35.197Z,23.25
2019-04-25T16:15:41.465Z,21.87
2019-04-25T16:20:47.177Z,20.20
2019-04-25T16:25:52.502Z,20.76
2019-04-25T16:30:58.702Z,20.42
2019-04-25T16:36:03.959Z,20.45
2019-04-25T16:41:09.204Z,21.01
2019-04-25T16:46:15.241Z,21.21
2019-04-25T16:51:20.766Z,21.74
2019-04-25T16:56:26.368Z,21.79
2019-04-25T17:01:31.934Z,22.31
2019-04-25T17:06:38.038Z,22.57
2019-04-25T17:11:43.354Z,22.57
2019-04-25T17:17:00.809Z,23.23
2019-04-25T17:22:06.136Z,23.51
2019-04-25T17:27:11.778Z,24.29
2019-04-25T17:32:48.535Z,24.74
2019-04-25T17:38:03.814Z,24.88
2019-04-25T17:43:11.141Z,25.36
2019-04-25T17:48:16.288Z,25.58
2019-04-25T17:53:21.543Z,25.73
2019-04-25T17:58:26.788Z,26.16
2019-04-25T18:03:33.603Z,26.43
2019-04-25T18:08:39.592Z,26.69
2019-04-25T18:13:45.066Z,26.92
2019-04-25T18:19:06.513Z,28.22
2019-04-25T18:24:25.028Z,28.46
2019-04-25T18:29:31.857Z,29.25
2019-04-25T18:34:46.475Z,29.27
2019-04-25T18:39:58.762Z,29.68
2019-04-25T18:45:04.572Z,29.81
2019-04-25T18:50:13.600Z,29.98
2019-04-25T18:55:25.466Z,30.35
2019-04-25T19:00:47.871Z,30.65
2019-04-25T19:05:57.118Z,30.98
2019-04-25T19:11:02.866Z,31.41
2019-04-25T19:16:09.333Z,31.58
2019-04-25T19:21:14.680Z,31.78
2019-04-25T19:26:20.388Z,31.84
2019-04-25T19:31:25.759Z,31.85
2019-04-25T19:36:30.982Z,32.29
2019-04-25T19:41:43.113Z,32.43
2019-04-25T19:46:51.352Z,32.97
2019-04-25T19:51:58.226Z,33.07
2019-04-25T19:57:03.582Z,33.35
2019-04-25T20:02:15.651Z,33.67
2019-04-25T20:07:46.529Z,34.04
2019-04-25T20:12:53.402Z,33.93
2019-04-25T20:17:58.790Z,33.79
2019-04-25T20:23:04.055Z,33.80
2019-04-25T20:28:09.645Z,33.65
2019-04-25T20:33:14.921Z,33.82
2019-04-25T20:38:20.178Z,33.97
2019-04-25T20:43:25.421Z,34.01
2019-04-25T20:48:30.672Z,34.05
2019-04-25T20:53:36.373Z,34.37
2019-04-25T20:58:41.605Z,34.51
2019-04-25T21:03:48.608Z,34.77
2019-04-25T21:08:55.471Z,35.01
2019-04-25T21:14:19.050Z,35.22
2019-04-25T21:19:29.579Z,35.77
2019-04-25T21:24:35.118Z,35.96
2019-04-25T21:29:40.394Z,36.65
2019-04-25T21:34:45.636Z,36.77
2019-04-25T21:40:22.207Z,36.53
2019-04-25T21:45:28.029Z,37.00
2019-04-25T21:50:33.934Z,37.52
2019-04-25T21:55:40.210Z,37.52
2019-04-25T22:01:07.351Z,38.08
2019-04-25T22:06:14.225Z,38.63
2019-04-25T22:11:19.476Z,38.46
2019-04-25T22:16:25.090Z,39.14
2019-04-25T22:21:37.758Z,39.86
2019-04-25T22:26:38.014Z,39.70
2019-04-25T22:31:53.639Z,40.09
2019-04-25T22:36:59.903Z,40.87
2019-04-25T22:42:06.422Z,40.85
2019-04-25T22:47:12.584Z,40.89
2019-04-25T22:52:17.878Z,41.17
2019-04-25T22:57:23.123Z,41.13
2019-04-25T23:02:50.483Z,41.06
2019-04-25T23:07:55.987Z,40.90
2019-04-25T23:13:03.203Z,40.18
2019-04-25T23:18:09.364Z,40.48
2019-04-25T23:23:14.682Z,39.88
2019-04-25T23:28:21.646Z,40.11
2019-04-25T23:33:28.177Z,40.34
2019-04-25T23:38:34.005Z,40.68
2019-04-25T23:43:39.421Z,40.38
2019-04-25T23:48:44.670Z,41.36
2019-04-25T23:53:49.999Z,40.67
2019-04-25T23:58:55.256Z,40.59
